sensor_id;sensor_type;location;lat;lon;timestamp;P1;durP1;ratioP1;P2;durP2;ratioP2
33066;SDS011;19428;49.024;8.366;2022-08-04T00:00:06;1.85;;;1.85;;
33066;SDS011;19428;49.024;8.366;2022-08-04T00:02:58;1.80;;;1.80;;
33066;SDS011;19428;49.024;8.366;2022-08-04T00:05:40;1.63;;;1.63;;
33066;SDS011;19428;49.024;8.366;2022-08-04T00:10:52;2.00;;;2.00;;
33066;SDS011;19428;49.024;8.366;2022-08-04T00:13:23;2.60;;;2.53;;
33066;SDS011;19428;49.024;8.366;2022-08-04T00:15:57;1.88;;;1.88;;
33066;SDS011;19428;49.024;8.366;2022-08-04T00:18:28;1.85;;;1.85;;
33066;SDS011;19428;49.024;8.366;2022-08-04T00:21:05;1.77;;;1.77;;
33066;SDS011;19428;49.024;8.366;2022-08-04T00:23:34;1.58;;;1.58;;
33066;SDS011;19428;49.024;8.366;2022-08-04T00:26:00;1.80;;;1.80;;
33066;SDS011;19428;49.024;8.366;2022-08-04T00:28:26;31.98;;;4.13;;
33066;SDS011;19428;49.024;8.366;2022-08-04T00:30:53;1.70;;;1.70;;
33066;SDS011;19428;49.024;8.366;2022-08-04T00:33:19;1.92;;;1.90;;
33066;SDS011;19428;49.024;8.366;2022-08-04T00:35:46;1.80;;;1.80;;
33066;SDS011;19428;49.024;8.366;2022-08-04T00:38:14;1.92;;;1.92;;
33066;SDS011;19428;49.024;8.366;2022-08-04T00:55:26;2.17;;;2.17;;
33066;SDS011;19428;49.024;8.366;2022-08-04T01:00:09;2.55;;;2.55;;
33066;SDS011;19428;49.024;8.366;2022-08-04T01:08:20;3.42;;;3.35;;
33066;SDS011;19428;49.024;8.366;2022-08-04T01:16:43;3.90;;;3.80;;
33066;SDS011;19428;49.024;8.366;2022-08-04T01:27:48;10.68;;;10.35;;
33066;SDS011;19428;49.024;8.366;2022-08-04T01:30:20;13.73;;;13.27;;
33066;SDS011;19428;49.024;8.366;2022-08-04T01:32:51;15.90;;;15.30;;
33066;SDS011;19428;49.024;8.366;2022-08-04T01:35:23;13.60;;;13.15;;
33066;SDS011;19428;49.024;8.366;2022-08-04T01:40:18;14.32;;;13.85;;
33066;SDS011;19428;49.024;8.366;2022-08-04T01:42:46;13.20;;;12.75;;
33066;SDS011;19428;49.024;8.366;2022-08-04T01:45:16;13.18;;;12.77;;
33066;SDS011;19428;49.024;8.366;2022-08-04T01:47:47;12.75;;;12.35;;
33066;SDS011;19428;49.024;8.366;2022-08-04T01:50:15;13.00;;;12.57;;
33066;SDS011;19428;49.024;8.366;2022-08-04T01:52:41;14.60;;;14.13;;
33066;SDS011;19428;49.024;8.366;2022-08-04T01:55:09;14.65;;;14.15;;
33066;SDS011;19428;49.024;8.366;2022-08-04T01:57:36;15.45;;;14.93;;
33066;SDS011;19428;49.024;8.366;2022-08-04T02:00:20;17.52;;;16.90;;
33066;SDS011;19428;49.024;8.366;2022-08-04T02:02:48;17.90;;;17.27;;
33066;SDS011;19428;49.024;8.366;2022-08-04T02:05:15;18.95;;;18.25;;
33066;SDS011;19428;49.024;8.366;2022-08-04T02:10:49;17.75;;;17.15;;
33066;SDS011;19428;49.024;8.366;2022-08-04T02:13:32;18.65;;;18.00;;
33066;SDS011;19428;49.024;8.366;2022-08-04T02:16:15;17.10;;;16.50;;
33066;SDS011;19428;49.024;8.366;2022-08-04T02:19:10;18.88;;;18.20;;
33066;SDS011;19428;49.024;8.366;2022-08-04T02:21:40;20.20;;;19.50;;
33066;SDS011;19428;49.024;8.366;2022-08-04T02:24:08;19.67;;;18.98;;
33066;SDS011;19428;49.024;8.366;2022-08-04T02:26:39;20.45;;;19.75;;
33066;SDS011;19428;49.024;8.366;2022-08-04T02:31:42;21.77;;;21.00;;
33066;SDS011;19428;49.024;8.366;2022-08-04T02:34:19;21.08;;;20.30;;
33066;SDS011;19428;49.024;8.366;2022-08-04T02:36:51;21.98;;;21.17;;
33066;SDS011;19428;49.024;8.366;2022-08-04T02:39:19;22.88;;;22.05;;
33066;SDS011;19428;49.024;8.366;2022-08-04T02:41:47;22.35;;;21.55;;
33066;SDS011;19428;49.024;8.366;2022-08-04T02:44:13;23.27;;;22.45;;
33066;SDS011;19428;49.024;8.366;2022-08-04T02:46:46;23.88;;;23.02;;
33066;SDS011;19428;49.024;8.366;2022-08-04T02:49:14;25.92;;;24.98;;
33066;SDS011;19428;49.024;8.366;2022-08-04T02:51:42;23.10;;;22.27;;
33066;SDS011;19428;49.024;8.366;2022-08-04T02:54:10;25.02;;;24.13;;
33066;SDS011;19428;49.024;8.366;2022-08-04T02:56:41;27.48;;;26.45;;
33066;SDS011;19428;49.024;8.366;2022-08-04T02:59:10;28.25;;;27.15;;
33066;SDS011;19428;49.024;8.366;2022-08-04T03:01:37;26.60;;;25.50;;
33066;SDS011;19428;49.024;8.366;2022-08-04T03:13:09;29.33;;;28.23;;
33066;SDS011;19428;49.024;8.366;2022-08-04T03:21:53;31.23;;;30.05;;
33066;SDS011;19428;49.024;8.366;2022-08-04T03:27:34;27.55;;;26.52;;
33066;SDS011;19428;49.024;8.366;2022-08-04T03:30:29;27.95;;;26.92;;
33066;SDS011;19428;49.024;8.366;2022-08-04T03:39:36;30.70;;;29.55;;
33066;SDS011;19428;49.024;8.366;2022-08-04T03:42:08;31.58;;;30.38;;
33066;SDS011;19428;49.024;8.366;2022-08-04T03:47:33;30.38;;;29.20;;
33066;SDS011;19428;49.024;8.366;2022-08-04T03:50:36;29.85;;;28.73;;
33066;SDS011;19428;49.024;8.366;2022-08-04T03:53:32;29.73;;;28.60;;
33066;SDS011;19428;49.024;8.366;2022-08-04T03:59:04;29.92;;;28.83;;
33066;SDS011;19428;49.024;8.366;2022-08-04T04:01:57;30.13;;;28.95;;
33066;SDS011;19428;49.024;8.366;2022-08-04T04:07:58;33.10;;;31.80;;
33066;SDS011;19428;49.024;8.366;2022-08-04T04:16:48;33.25;;;31.95;;
33066;SDS011;19428;49.024;8.366;2022-08-04T04:24:32;30.02;;;28.88;;
33066;SDS011;19428;49.024;8.366;2022-08-04T04:30:00;30.38;;;29.23;;
33066;SDS011;19428;49.024;8.366;2022-08-04T04:38:38;31.67;;;30.48;;
33066;SDS011;19428;49.024;8.366;2022-08-04T04:52:23;24.92;;;24.02;;
33066;SDS011;19428;49.024;8.366;2022-08-04T04:57:45;21.75;;;20.95;;
33066;SDS011;19428;49.024;8.366;2022-08-04T05:00:15;19.05;;;18.40;;
33066;SDS011;19428;49.024;8.366;2022-08-04T05:05:26;10.18;;;9.88;;
33066;SDS011;19428;49.024;8.366;2022-08-04T05:11:24;2.55;;;2.55;;
33066;SDS011;19428;49.024;8.366;2022-08-04T05:14:07;2.10;;;2.10;;
33066;SDS011;19428;49.024;8.366;2022-08-04T05:16:41;3.10;;;2.07;;
33066;SDS011;19428;49.024;8.366;2022-08-04T05:22:10;1.60;;;1.60;;
33066;SDS011;19428;49.024;8.366;2022-08-04T05:24:43;1.40;;;1.40;;
33066;SDS011;19428;49.024;8.366;2022-08-04T05:27:19;1.40;;;1.40;;
33066;SDS011;19428;49.024;8.366;2022-08-04T05:29:53;1.38;;;1.38;;
33066;SDS011;19428;49.024;8.366;2022-08-04T05:32:23;1.10;;;1.10;;
33066;SDS011;19428;49.024;8.366;2022-08-04T05:34:54;1.17;;;1.17;;
33066;SDS011;19428;49.024;8.366;2022-08-04T05:37:26;1.30;;;1.30;;
33066;SDS011;19428;49.024;8.366;2022-08-04T05:39:58;2.08;;;1.90;;
33066;SDS011;19428;49.024;8.366;2022-08-04T05:42:28;1.80;;;1.80;;
33066;SDS011;19428;49.024;8.366;2022-08-04T05:44:57;1.00;;;1.00;;
33066;SDS011;19428;49.024;8.366;2022-08-04T05:47:23;1.13;;;1.13;;
33066;SDS011;19428;49.024;8.366;2022-08-04T05:49:50;0.90;;;0.90;;
33066;SDS011;19428;49.024;8.366;2022-08-04T05:52:16;1.20;;;1.20;;
33066;SDS011;19428;49.024;8.366;2022-08-04T05:54:42;1.10;;;1.10;;
33066;SDS011;19428;49.024;8.366;2022-08-04T05:57:09;1.17;;;1.17;;
33066;SDS011;19428;49.024;8.366;2022-08-04T05:59:36;0.98;;;0.98;;
33066;SDS011;19428;49.024;8.366;2022-08-04T06:02:04;2.25;;;1.35;;
33066;SDS011;19428;49.024;8.366;2022-08-04T06:04:37;0.80;;;0.80;;
33066;SDS011;19428;49.024;8.366;2022-08-04T06:07:05;0.80;;;0.80;;
33066;SDS011;19428;49.024;8.366;2022-08-04T06:09:32;0.77;;;0.77;;
33066;SDS011;19428;49.024;8.366;2022-08-04T06:12:03;1.40;;;1.40;;
33066;SDS011;19428;49.024;8.366;2022-08-04T06:14:41;1.20;;;1.20;;
33066;SDS011;19428;49.024;8.366;2022-08-04T06:17:10;0.98;;;0.98;;
33066;SDS011;19428;49.024;8.366;2022-08-04T06:19:39;0.90;;;0.90;;
33066;SDS011;19428;49.024;8.366;2022-08-04T06:22:08;1.10;;;1.10;;
33066;SDS011;19428;49.024;8.366;2022-08-04T06:24:39;1.13;;;1.13;;
33066;SDS011;19428;49.024;8.366;2022-08-04T06:27:05;1.75;;;1.75;;
33066;SDS011;19428;49.024;8.366;2022-08-04T06:29:32;1.88;;;1.88;;
33066;SDS011;19428;49.024;8.366;2022-08-04T06:32:02;1.13;;;1.13;;
33066;SDS011;19428;49.024;8.366;2022-08-04T06:34:53;2.55;;;2.45;;
33066;SDS011;19428;49.024;8.366;2022-08-04T06:37:21;2.47;;;2.38;;
33066;SDS011;19428;49.024;8.366;2022-08-04T06:39:59;1.25;;;1.25;;
33066;SDS011;19428;49.024;8.366;2022-08-04T06:42:26;1.15;;;1.15;;
33066;SDS011;19428;49.024;8.366;2022-08-04T06:44:54;1.25;;;1.25;;
33066;SDS011;19428;49.024;8.366;2022-08-04T06:47:21;1.30;;;1.30;;
33066;SDS011;19428;49.024;8.366;2022-08-04T06:49:49;1.65;;;1.65;;
33066;SDS011;19428;49.024;8.366;2022-08-04T06:52:16;1.40;;;1.40;;
33066;SDS011;19428;49.024;8.366;2022-08-04T06:54:44;1.83;;;1.83;;
33066;SDS011;19428;49.024;8.366;2022-08-04T06:57:15;1.55;;;1.55;;
33066;SDS011;19428;49.024;8.366;2022-08-04T06:59:45;1.67;;;1.67;;
33066;SDS011;19428;49.024;8.366;2022-08-04T07:02:25;1.20;;;1.20;;
33066;SDS011;19428;49.024;8.366;2022-08-04T07:04:52;1.20;;;1.20;;
33066;SDS011;19428;49.024;8.366;2022-08-04T07:07:20;1.17;;;1.17;;
33066;SDS011;19428;49.024;8.366;2022-08-04T07:09:48;1.42;;;1.42;;
33066;SDS011;19428;49.024;8.366;2022-08-04T07:12:13;1.17;;;1.17;;
33066;SDS011;19428;49.024;8.366;2022-08-04T07:14:44;1.08;;;1.08;;
33066;SDS011;19428;49.024;8.366;2022-08-04T07:17:10;1.33;;;1.33;;
33066;SDS011;19428;49.024;8.366;2022-08-04T07:19:38;1.00;;;1.00;;
33066;SDS011;19428;49.024;8.366;2022-08-04T07:22:03;1.10;;;1.10;;
33066;SDS011;19428;49.024;8.366;2022-08-04T07:24:33;1.15;;;1.15;;
33066;SDS011;19428;49.024;8.366;2022-08-04T07:27:00;1.25;;;1.25;;
33066;SDS011;19428;49.024;8.366;2022-08-04T07:29:27;1.00;;;1.00;;
33066;SDS011;19428;49.024;8.366;2022-08-04T07:31:53;1.15;;;1.15;;
33066;SDS011;19428;49.024;8.366;2022-08-04T07:34:20;1.60;;;1.60;;
33066;SDS011;19428;49.024;8.366;2022-08-04T07:36:47;1.05;;;1.05;;
33066;SDS011;19428;49.024;8.366;2022-08-04T07:39:14;1.48;;;1.48;;
33066;SDS011;19428;49.024;8.366;2022-08-04T07:41:40;3.17;;;1.85;;
33066;SDS011;19428;49.024;8.366;2022-08-04T07:44:07;1.35;;;1.35;;
33066;SDS011;19428;49.024;8.366;2022-08-04T07:46:34;1.08;;;1.08;;
33066;SDS011;19428;49.024;8.366;2022-08-04T07:49:00;1.13;;;1.13;;
33066;SDS011;19428;49.024;8.366;2022-08-04T07:51:27;1.33;;;1.33;;
33066;SDS011;19428;49.024;8.366;2022-08-04T07:53:54;1.10;;;1.10;;
33066;SDS011;19428;49.024;8.366;2022-08-04T07:56:21;1.30;;;1.30;;
33066;SDS011;19428;49.024;8.366;2022-08-04T07:58:46;1.13;;;1.13;;
33066;SDS011;19428;49.024;8.366;2022-08-04T08:01:12;1.42;;;1.42;;
33066;SDS011;19428;49.024;8.366;2022-08-04T08:03:38;1.10;;;1.10;;
33066;SDS011;19428;49.024;8.366;2022-08-04T08:06:06;1.52;;;1.52;;
33066;SDS011;19428;49.024;8.366;2022-08-04T08:08:36;1.10;;;1.10;;
33066;SDS011;19428;49.024;8.366;2022-08-04T08:11:03;2.80;;;2.65;;
33066;SDS011;19428;49.024;8.366;2022-08-04T08:13:29;1.00;;;1.00;;
33066;SDS011;19428;49.024;8.366;2022-08-04T08:15:56;1.17;;;1.17;;
33066;SDS011;19428;49.024;8.366;2022-08-04T08:18:23;1.38;;;1.38;;
33066;SDS011;19428;49.024;8.366;2022-08-04T08:20:48;1.10;;;1.10;;
33066;SDS011;19428;49.024;8.366;2022-08-04T08:23:16;2.20;;;2.10;;
33066;SDS011;19428;49.024;8.366;2022-08-04T08:25:42;1.20;;;1.20;;
33066;SDS011;19428;49.024;8.366;2022-08-04T08:28:07;1.00;;;1.00;;
33066;SDS011;19428;49.024;8.366;2022-08-04T08:30:34;1.02;;;1.02;;
33066;SDS011;19428;49.024;8.366;2022-08-04T08:33:00;1.95;;;1.95;;
33066;SDS011;19428;49.024;8.366;2022-08-04T08:35:28;1.88;;;1.88;;
33066;SDS011;19428;49.024;8.366;2022-08-04T08:38:05;1.10;;;1.10;;
33066;SDS011;19428;49.024;8.366;2022-08-04T08:40:43;1.10;;;1.10;;
33066;SDS011;19428;49.024;8.366;2022-08-04T08:54:27;1.10;;;1.10;;
33066;SDS011;19428;49.024;8.366;2022-08-04T09:02:32;1.35;;;1.35;;
33066;SDS011;19428;49.024;8.366;2022-08-04T09:05:33;1.05;;;1.05;;
33066;SDS011;19428;49.024;8.366;2022-08-04T09:10:59;0.80;;;0.80;;
33066;SDS011;19428;49.024;8.366;2022-08-04T09:13:33;0.90;;;0.90;;
33066;SDS011;19428;49.024;8.366;2022-08-04T09:16:29;0.80;;;0.80;;
33066;SDS011;19428;49.024;8.366;2022-08-04T09:19:18;0.70;;;0.70;;
33066;SDS011;19428;49.024;8.366;2022-08-04T09:21:52;0.98;;;0.98;;
33066;SDS011;19428;49.024;8.366;2022-08-04T09:24:49;0.90;;;0.90;;
33066;SDS011;19428;49.024;8.366;2022-08-04T09:30:35;0.88;;;0.88;;
33066;SDS011;19428;49.024;8.366;2022-08-04T09:36:03;1.00;;;1.00;;
33066;SDS011;19428;49.024;8.366;2022-08-04T09:38:41;0.95;;;0.95;;
33066;SDS011;19428;49.024;8.366;2022-08-04T09:41:35;0.90;;;0.90;;
33066;SDS011;19428;49.024;8.366;2022-08-04T09:44:24;3.25;;;2.15;;
33066;SDS011;19428;49.024;8.366;2022-08-04T09:47:28;0.63;;;0.63;;
33066;SDS011;19428;49.024;8.366;2022-08-04T09:56:22;1.73;;;1.33;;
33066;SDS011;19428;49.024;8.366;2022-08-04T09:58:50;0.80;;;0.80;;
33066;SDS011;19428;49.024;8.366;2022-08-04T10:01:34;1.10;;;1.10;;
33066;SDS011;19428;49.024;8.366;2022-08-04T10:04:03;1.10;;;1.10;;
33066;SDS011;19428;49.024;8.366;2022-08-04T10:14:52;0.82;;;0.82;;
33066;SDS011;19428;49.024;8.366;2022-08-04T10:20:41;0.80;;;0.80;;
33066;SDS011;19428;49.024;8.366;2022-08-04T10:28:45;0.93;;;0.93;;
33066;SDS011;19428;49.024;8.366;2022-08-04T10:31:19;0.80;;;0.80;;
33066;SDS011;19428;49.024;8.366;2022-08-04T10:33:53;1.23;;;1.23;;
33066;SDS011;19428;49.024;8.366;2022-08-04T10:36:36;0.70;;;0.70;;
33066;SDS011;19428;49.024;8.366;2022-08-04T10:39:13;0.70;;;0.70;;
33066;SDS011;19428;49.024;8.366;2022-08-04T10:41:51;2.63;;;1.45;;
33066;SDS011;19428;49.024;8.366;2022-08-04T10:44:27;0.60;;;0.60;;
33066;SDS011;19428;49.024;8.366;2022-08-04T10:47:19;0.57;;;0.57;;
33066;SDS011;19428;49.024;8.366;2022-08-04T10:49:57;2.15;;;2.05;;
33066;SDS011;19428;49.024;8.366;2022-08-04T10:52:47;0.50;;;0.50;;
33066;SDS011;19428;49.024;8.366;2022-08-04T10:55:20;0.50;;;0.50;;
33066;SDS011;19428;49.024;8.366;2022-08-04T10:57:54;0.43;;;0.43;;
33066;SDS011;19428;49.024;8.366;2022-08-04T11:00:25;0.50;;;0.50;;
33066;SDS011;19428;49.024;8.366;2022-08-04T11:03:07;1.58;;;1.58;;
33066;SDS011;19428;49.024;8.366;2022-08-04T11:05:56;1.35;;;1.25;;
33066;SDS011;19428;49.024;8.366;2022-08-04T11:08:43;0.50;;;0.50;;
33066;SDS011;19428;49.024;8.366;2022-08-04T11:13:58;0.60;;;0.60;;
33066;SDS011;19428;49.024;8.366;2022-08-04T11:27:46;0.50;;;0.50;;
33066;SDS011;19428;49.024;8.366;2022-08-04T11:30:20;0.55;;;0.55;;
33066;SDS011;19428;49.024;8.366;2022-08-04T11:33:37;0.70;;;0.70;;
33066;SDS011;19428;49.024;8.366;2022-08-04T11:35:41;0.50;;;0.50;;
33066;SDS011;19428;49.024;8.366;2022-08-04T11:38:21;0.60;;;0.60;;
33066;SDS011;19428;49.024;8.366;2022-08-04T11:40:56;0.80;;;0.80;;
33066;SDS011;19428;49.024;8.366;2022-08-04T11:43:25;0.70;;;0.70;;
33066;SDS011;19428;49.024;8.366;2022-08-04T11:46:01;0.63;;;0.63;;
33066;SDS011;19428;49.024;8.366;2022-08-04T11:48:38;0.70;;;0.70;;
33066;SDS011;19428;49.024;8.366;2022-08-04T11:51:08;0.77;;;0.77;;
33066;SDS011;19428;49.024;8.366;2022-08-04T11:53:36;0.60;;;0.60;;
33066;SDS011;19428;49.024;8.366;2022-08-04T11:56:04;0.40;;;0.40;;
33066;SDS011;19428;49.024;8.366;2022-08-04T11:58:32;0.50;;;0.50;;
33066;SDS011;19428;49.024;8.366;2022-08-04T12:06:44;0.40;;;0.40;;
33066;SDS011;19428;49.024;8.366;2022-08-04T12:09:19;0.70;;;0.70;;
33066;SDS011;19428;49.024;8.366;2022-08-04T12:17:25;0.50;;;0.50;;
33066;SDS011;19428;49.024;8.366;2022-08-04T12:19:56;0.90;;;0.90;;
33066;SDS011;19428;49.024;8.366;2022-08-04T12:22:26;0.50;;;0.50;;
33066;SDS011;19428;49.024;8.366;2022-08-04T12:25:09;2.08;;;1.95;;
33066;SDS011;19428;49.024;8.366;2022-08-04T12:27:46;0.50;;;0.50;;
33066;SDS011;19428;49.024;8.366;2022-08-04T12:30:15;0.50;;;0.50;;
33066;SDS011;19428;49.024;8.366;2022-08-04T12:38:06;0.70;;;0.70;;
33066;SDS011;19428;49.024;8.366;2022-08-04T12:40:57;0.60;;;0.60;;
33066;SDS011;19428;49.024;8.366;2022-08-04T12:43:41;0.50;;;0.50;;
33066;SDS011;19428;49.024;8.366;2022-08-04T12:46:08;0.40;;;0.40;;
33066;SDS011;19428;49.024;8.366;2022-08-04T12:48:36;0.65;;;0.65;;
33066;SDS011;19428;49.024;8.366;2022-08-04T12:51:03;0.50;;;0.50;;
33066;SDS011;19428;49.024;8.366;2022-08-04T12:53:37;0.50;;;0.50;;
33066;SDS011;19428;49.024;8.366;2022-08-04T12:56:04;0.50;;;0.50;;
33066;SDS011;19428;49.024;8.366;2022-08-04T12:58:32;0.43;;;0.43;;
33066;SDS011;19428;49.024;8.366;2022-08-04T13:01:10;0.50;;;0.50;;
33066;SDS011;19428;49.024;8.366;2022-08-04T13:03:46;0.55;;;0.55;;
33066;SDS011;19428;49.024;8.366;2022-08-04T13:06:17;0.65;;;0.65;;
33066;SDS011;19428;49.024;8.366;2022-08-04T13:08:50;0.50;;;0.50;;
33066;SDS011;19428;49.024;8.366;2022-08-04T13:11:18;0.70;;;0.70;;
33066;SDS011;19428;49.024;8.366;2022-08-04T13:13:46;0.50;;;0.50;;
33066;SDS011;19428;49.024;8.366;2022-08-04T13:16:19;0.50;;;0.50;;
33066;SDS011;19428;49.024;8.366;2022-08-04T13:18:56;0.60;;;0.60;;
33066;SDS011;19428;49.024;8.366;2022-08-04T13:21:24;0.70;;;0.70;;
33066;SDS011;19428;49.024;8.366;2022-08-04T13:23:53;0.70;;;0.70;;
33066;SDS011;19428;49.024;8.366;2022-08-04T13:26:25;0.60;;;0.60;;
33066;SDS011;19428;49.024;8.366;2022-08-04T13:28:52;0.60;;;0.60;;
33066;SDS011;19428;49.024;8.366;2022-08-04T13:31:22;0.50;;;0.50;;
33066;SDS011;19428;49.024;8.366;2022-08-04T13:33:53;0.50;;;0.50;;
33066;SDS011;19428;49.024;8.366;2022-08-04T13:36:26;0.60;;;0.60;;
33066;SDS011;19428;49.024;8.366;2022-08-04T13:38:54;0.60;;;0.60;;
33066;SDS011;19428;49.024;8.366;2022-08-04T13:41:22;0.70;;;0.70;;
33066;SDS011;19428;49.024;8.366;2022-08-04T13:43:49;0.80;;;0.80;;
33066;SDS011;19428;49.024;8.366;2022-08-04T13:46:19;0.60;;;0.60;;
33066;SDS011;19428;49.024;8.366;2022-08-04T13:48:49;0.50;;;0.50;;
33066;SDS011;19428;49.024;8.366;2022-08-04T13:51:16;0.98;;;0.98;;
33066;SDS011;19428;49.024;8.366;2022-08-04T13:53:44;0.60;;;0.60;;
33066;SDS011;19428;49.024;8.366;2022-08-04T13:56:21;0.60;;;0.60;;
33066;SDS011;19428;49.024;8.366;2022-08-04T13:58:57;0.60;;;0.60;;
33066;SDS011;19428;49.024;8.366;2022-08-04T14:01:29;0.60;;;0.60;;
33066;SDS011;19428;49.024;8.366;2022-08-04T14:04:00;0.60;;;0.60;;
33066;SDS011;19428;49.024;8.366;2022-08-04T14:06:29;0.50;;;0.50;;
33066;SDS011;19428;49.024;8.366;2022-08-04T14:09:01;0.50;;;0.50;;
33066;SDS011;19428;49.024;8.366;2022-08-04T14:11:45;0.50;;;0.50;;
33066;SDS011;19428;49.024;8.366;2022-08-04T14:19:50;0.50;;;0.50;;
33066;SDS011;19428;49.024;8.366;2022-08-04T14:22:39;0.50;;;0.50;;
33066;SDS011;19428;49.024;8.366;2022-08-04T14:27:51;0.60;;;0.60;;
33066;SDS011;19428;49.024;8.366;2022-08-04T14:30:22;0.73;;;0.73;;
33066;SDS011;19428;49.024;8.366;2022-08-04T14:32:57;0.73;;;0.73;;
33066;SDS011;19428;49.024;8.366;2022-08-04T14:35:26;0.55;;;0.55;;
33066;SDS011;19428;49.024;8.366;2022-08-04T14:37:57;0.70;;;0.70;;
33066;SDS011;19428;49.024;8.366;2022-08-04T14:40:26;0.77;;;0.77;;
33066;SDS011;19428;49.024;8.366;2022-08-04T14:42:54;1.08;;;1.08;;
33066;SDS011;19428;49.024;8.366;2022-08-04T14:45:27;1.10;;;1.10;;
33066;SDS011;19428;49.024;8.366;2022-08-04T14:48:01;0.80;;;0.80;;
33066;SDS011;19428;49.024;8.366;2022-08-04T14:50:36;0.90;;;0.90;;
33066;SDS011;19428;49.024;8.366;2022-08-04T14:53:14;0.88;;;0.88;;
33066;SDS011;19428;49.024;8.366;2022-08-04T14:55:42;0.90;;;0.90;;
33066;SDS011;19428;49.024;8.366;2022-08-04T14:58:23;0.77;;;0.77;;
33066;SDS011;19428;49.024;8.366;2022-08-04T15:00:53;1.45;;;1.45;;
33066;SDS011;19428;49.024;8.366;2022-08-04T15:03:21;0.70;;;0.70;;
33066;SDS011;19428;49.024;8.366;2022-08-04T15:05:48;0.88;;;0.88;;
33066;SDS011;19428;49.024;8.366;2022-08-04T15:08:14;0.70;;;0.70;;
33066;SDS011;19428;49.024;8.366;2022-08-04T15:10:42;0.80;;;0.80;;
33066;SDS011;19428;49.024;8.366;2022-08-04T15:13:08;0.85;;;0.85;;
33066;SDS011;19428;49.024;8.366;2022-08-04T15:15:37;0.75;;;0.75;;
33066;SDS011;19428;49.024;8.366;2022-08-04T15:18:03;2.22;;;2.13;;
33066;SDS011;19428;49.024;8.366;2022-08-04T15:20:32;1.52;;;1.52;;
33066;SDS011;19428;49.024;8.366;2022-08-04T15:23:00;0.80;;;0.80;;
33066;SDS011;19428;49.024;8.366;2022-08-04T15:25:27;0.80;;;0.80;;
33066;SDS011;19428;49.024;8.366;2022-08-04T15:28:12;0.80;;;0.80;;
33066;SDS011;19428;49.024;8.366;2022-08-04T15:30:41;0.80;;;0.80;;
33066;SDS011;19428;49.024;8.366;2022-08-04T15:33:09;0.75;;;0.75;;
33066;SDS011;19428;49.024;8.366;2022-08-04T15:35:37;0.75;;;0.75;;
33066;SDS011;19428;49.024;8.366;2022-08-04T15:38:08;0.80;;;0.80;;
33066;SDS011;19428;49.024;8.366;2022-08-04T15:40:45;0.75;;;0.75;;
33066;SDS011;19428;49.024;8.366;2022-08-04T15:43:17;0.80;;;0.80;;
33066;SDS011;19428;49.024;8.366;2022-08-04T15:45:51;0.70;;;0.70;;
33066;SDS011;19428;49.024;8.366;2022-08-04T15:48:26;0.75;;;0.75;;
33066;SDS011;19428;49.024;8.366;2022-08-04T15:53:22;0.82;;;0.82;;
33066;SDS011;19428;49.024;8.366;2022-08-04T15:55:50;0.80;;;0.80;;
33066;SDS011;19428;49.024;8.366;2022-08-04T15:58:19;0.70;;;0.70;;
33066;SDS011;19428;49.024;8.366;2022-08-04T16:05:58;0.60;;;0.60;;
33066;SDS011;19428;49.024;8.366;2022-08-04T16:08:25;0.70;;;0.70;;
33066;SDS011;19428;49.024;8.366;2022-08-04T16:10:51;1.00;;;1.00;;
33066;SDS011;19428;49.024;8.366;2022-08-04T16:13:18;0.65;;;0.65;;
33066;SDS011;19428;49.024;8.366;2022-08-04T16:18:58;0.50;;;0.50;;
33066;SDS011;19428;49.024;8.366;2022-08-04T16:21:04;0.60;;;0.60;;
33066;SDS011;19428;49.024;8.366;2022-08-04T16:26:42;0.80;;;0.80;;
33066;SDS011;19428;49.024;8.366;2022-08-04T16:34:45;0.60;;;0.60;;
33066;SDS011;19428;49.024;8.366;2022-08-04T16:37:13;0.50;;;0.50;;
33066;SDS011;19428;49.024;8.366;2022-08-04T16:39:40;0.60;;;0.60;;
33066;SDS011;19428;49.024;8.366;2022-08-04T16:50:12;0.82;;;0.82;;
33066;SDS011;19428;49.024;8.366;2022-08-04T16:52:45;0.60;;;0.60;;
33066;SDS011;19428;49.024;8.366;2022-08-04T16:55:30;0.57;;;0.57;;
33066;SDS011;19428;49.024;8.366;2022-08-04T16:57:56;1.33;;;1.23;;
33066;SDS011;19428;49.024;8.366;2022-08-04T17:00:29;0.85;;;0.85;;
33066;SDS011;19428;49.024;8.366;2022-08-04T17:03:02;0.80;;;0.80;;
33066;SDS011;19428;49.024;8.366;2022-08-04T17:05:29;0.60;;;0.60;;
33066;SDS011;19428;49.024;8.366;2022-08-04T17:07:56;0.68;;;0.68;;
33066;SDS011;19428;49.024;8.366;2022-08-04T17:10:56;0.90;;;0.90;;
33066;SDS011;19428;49.024;8.366;2022-08-04T17:13:25;0.70;;;0.70;;
33066;SDS011;19428;49.024;8.366;2022-08-04T17:15:59;0.70;;;0.70;;
33066;SDS011;19428;49.024;8.366;2022-08-04T17:18:31;0.90;;;0.90;;
33066;SDS011;19428;49.024;8.366;2022-08-04T17:21:01;1.92;;;1.80;;
33066;SDS011;19428;49.024;8.366;2022-08-04T17:23:39;0.68;;;0.68;;
33066;SDS011;19428;49.024;8.366;2022-08-04T17:26:12;0.70;;;0.70;;
33066;SDS011;19428;49.024;8.366;2022-08-04T17:28:40;0.70;;;0.70;;
33066;SDS011;19428;49.024;8.366;2022-08-04T17:31:10;1.35;;;0.90;;
33066;SDS011;19428;49.024;8.366;2022-08-04T17:33:36;0.80;;;0.80;;
33066;SDS011;19428;49.024;8.366;2022-08-04T17:36:03;0.70;;;0.70;;
33066;SDS011;19428;49.024;8.366;2022-08-04T17:41:03;0.70;;;0.70;;
33066;SDS011;19428;49.024;8.366;2022-08-04T17:43:45;1.17;;;1.17;;
33066;SDS011;19428;49.024;8.366;2022-08-04T17:48:56;1.00;;;1.00;;
33066;SDS011;19428;49.024;8.366;2022-08-04T17:51:29;0.98;;;0.98;;
33066;SDS011;19428;49.024;8.366;2022-08-04T17:53:59;0.60;;;0.60;;
33066;SDS011;19428;49.024;8.366;2022-08-04T17:56:33;0.90;;;0.90;;
33066;SDS011;19428;49.024;8.366;2022-08-04T18:04:27;1.00;;;1.00;;
33066;SDS011;19428;49.024;8.366;2022-08-04T18:06:57;0.77;;;0.77;;
33066;SDS011;19428;49.024;8.366;2022-08-04T18:09:28;0.77;;;0.77;;
33066;SDS011;19428;49.024;8.366;2022-08-04T18:11:55;0.75;;;0.75;;
33066;SDS011;19428;49.024;8.366;2022-08-04T18:14:23;1.30;;;1.30;;
33066;SDS011;19428;49.024;8.366;2022-08-04T18:16:50;1.02;;;1.02;;
33066;SDS011;19428;49.024;8.366;2022-08-04T18:19:16;0.90;;;0.90;;
33066;SDS011;19428;49.024;8.366;2022-08-04T18:21:42;0.80;;;0.80;;
33066;SDS011;19428;49.024;8.366;2022-08-04T18:24:12;9.85;;;9.43;;
33066;SDS011;19428;49.024;8.366;2022-08-04T18:26:38;0.90;;;0.90;;
33066;SDS011;19428;49.024;8.366;2022-08-04T18:29:05;1.23;;;1.23;;
33066;SDS011;19428;49.024;8.366;2022-08-04T18:31:32;1.30;;;1.30;;
33066;SDS011;19428;49.024;8.366;2022-08-04T18:34:02;1.10;;;1.10;;
33066;SDS011;19428;49.024;8.366;2022-08-04T18:36:29;1.55;;;1.55;;
33066;SDS011;19428;49.024;8.366;2022-08-04T18:38:55;4.05;;;2.78;;
33066;SDS011;19428;49.024;8.366;2022-08-04T18:41:22;1.08;;;1.08;;
33066;SDS011;19428;49.024;8.366;2022-08-04T18:43:47;1.00;;;1.00;;
33066;SDS011;19428;49.024;8.366;2022-08-04T18:46:13;0.80;;;0.80;;
33066;SDS011;19428;49.024;8.366;2022-08-04T18:48:38;1.10;;;1.10;;
33066;SDS011;19428;49.024;8.366;2022-08-04T18:51:04;1.10;;;1.10;;
33066;SDS011;19428;49.024;8.366;2022-08-04T18:53:30;1.50;;;1.50;;
33066;SDS011;19428;49.024;8.366;2022-08-04T18:55:55;1.08;;;1.08;;
33066;SDS011;19428;49.024;8.366;2022-08-04T18:58:21;1.38;;;1.38;;
33066;SDS011;19428;49.024;8.366;2022-08-04T19:00:46;1.20;;;1.20;;
33066;SDS011;19428;49.024;8.366;2022-08-04T19:03:12;1.55;;;1.55;;
33066;SDS011;19428;49.024;8.366;2022-08-04T19:05:38;1.75;;;1.75;;
33066;SDS011;19428;49.024;8.366;2022-08-04T19:08:03;2.30;;;2.30;;
33066;SDS011;19428;49.024;8.366;2022-08-04T19:10:29;1.95;;;1.95;;
33066;SDS011;19428;49.024;8.366;2022-08-04T19:12:55;3.85;;;3.65;;
33066;SDS011;19428;49.024;8.366;2022-08-04T19:15:20;2.42;;;2.42;;
33066;SDS011;19428;49.024;8.366;2022-08-04T19:17:46;2.03;;;2.03;;
33066;SDS011;19428;49.024;8.366;2022-08-04T19:20:12;2.33;;;2.33;;